Time;durP1;ratioP1;P1;durP2;ratioP2;P2;SDS_P1;SDS_P2;PMS_P1;PMS_P2;Temp;Humidity;BMP_temperature;BMP_pressure;BME280_temperature;BME280_humidity;BME280_pressure;Samples;Min_cycle;Max_cycle;Signal;HPM_P1;HPM_P2
2023/05/09 00:02:24;;;;;;;14.40;4.60;;;;;;;4.37;69.24;101402.82;108594;1266;22567;-80
2023/05/09 00:04:55;;;;;;;16.60;4.70;;;;;;;4.34;69.42;101403.08;108496;1266;24216;-80
2023/05/09 00:07:26;;;;;;;15.20;3.90;;;;;;;4.30;69.43;101403.98;108606;1270;22623;-80
2023/05/09 00:09:57;;;;;;;18.20;5.20;;;;;;;4.27;69.67;101404.33;108618;1265;22576;-80
2023/05/09 00:12:28;;;;;;;15.90;4.80;;;;;;;4.24;69.75;101406.58;108518;1273;24321;-80
2023/05/09 00:14:59;;;;;;;15.90;5.30;;;;;;;4.23;69.83;101400.81;108605;1266;23330;-80
2023/05/09 00:17:32;;;;;;;16.90;5.60;;;;;;;4.21;69.91;101398.60;108574;1273;25369;-80
2023/05/09 00:20:04;;;;;;;17.80;5.30;;;;;;;4.18;70.10;101396.66;108468;1269;22577;-80
2023/05/09 00:22:37;;;;;;;16.60;5.10;;;;;;;4.13;70.19;101393.38;108485;1266;22485;-80
2023/05/09 00:25:11;;;;;;;19.30;4.80;;;;;;;4.09;70.44;101393.81;108492;1266;22595;-81
2023/05/09 00:27:41;;;;;;;19.80;5.60;;;;;;;4.06;70.50;101395.34;108631;1266;22632;-80
2023/05/09 00:30:13;;;;;;;16.60;5.10;;;;;;;4.03;70.61;101395.91;108566;1270;22513;-80
2023/05/09 00:32:44;;;;;;;17.00;4.90;;;;;;;4.01;70.64;101393.73;108626;1273;22539;-80
2023/05/09 00:35:14;;;;;;;16.20;5.40;;;;;;;3.98;70.80;101389.33;108643;1266;22591;-81
2023/05/09 00:37:45;;;;;;;18.20;5.40;;;;;;;3.95;70.91;101393.52;108545;1273;22694;-80
2023/05/09 00:40:17;;;;;;;19.00;5.90;;;;;;;3.91;71.06;101387.71;108689;1270;22527;-80
2023/05/09 00:42:47;;;;;;;18.30;5.90;;;;;;;3.88;71.24;101380.64;108576;1266;25449;-80
2023/05/09 00:45:18;;;;;;;18.90;5.20;;;;;;;3.85;71.30;101377.17;108742;1266;23238;-80
2023/05/09 00:47:49;;;;;;;17.40;4.90;;;;;;;3.81;71.41;101376.11;108639;1266;22517;-80
2023/05/09 00:50:20;;;;;;;20.50;6.00;;;;;;;3.79;71.52;101373.75;108506;1270;22541;-80
2023/05/09 00:52:51;;;;;;;15.90;5.10;;;;;;;3.78;71.62;101372.19;108406;1266;22517;-80
2023/05/09 00:55:22;;;;;;;15.40;4.20;;;;;;;3.79;71.73;101373.75;108373;1266;22597;-79
2023/05/09 00:57:53;;;;;;;20.40;5.40;;;;;;;3.81;71.85;101370.35;108519;1266;22536;-80
2023/05/09 01:00:24;;;;;;;17.20;4.30;;;;;;;3.81;72.00;101369.33;107941;1266;22599;-79
2023/05/09 01:02:57;;;;;;;13.00;5.00;;;;;;;3.82;72.03;101368.12;107915;1266;22937;-79
2023/05/09 01:05:38;;;;;;;16.50;4.60;;;;;;;3.86;72.10;101366.52;110613;1266;22364;-80
2023/05/09 01:08:17;;;;;;;18.20;4.20;;;;;;;3.90;72.15;101370.52;110479;1270;22578;-79
2023/05/09 01:11:01;;;;;;;15.80;3.80;;;;;;;3.92;72.38;101365.85;110625;1266;22153;-80
2023/05/09 01:13:38;;;;;;;17.70;4.80;;;;;;;3.93;72.51;101365.77;110599;1266;22317;-80
2023/05/09 01:16:17;;;;;;;16.50;4.50;;;;;;;3.95;72.58;101364.08;110608;1266;23094;-80
2023/05/09 01:18:56;;;;;;;15.70;4.40;;;;;;;3.96;72.74;101359.50;109867;1266;23255;-79
2023/05/09 01:21:32;;;;;;;15.90;5.00;;;;;;;3.95;72.84;101359.98;108568;1273;22760;-79
2023/05/09 01:24:22;;;;;;;14.40;4.10;;;;;;;3.94;72.83;101352.02;110617;1266;22341;-79
2023/05/09 01:27:11;;;;;;;16.50;4.30;;;;;;;3.92;72.87;101348.01;108676;1266;24201;-80
2023/05/09 01:29:44;;;;;;;19.90;5.40;;;;;;;3.89;73.00;101342.19;110588;1273;23263;-80
2023/05/09 01:32:18;;;;;;;20.40;5.60;;;;;;;3.87;73.10;101342.37;109855;1272;22511;-79
2023/05/09 01:34:52;;;;;;;19.10;5.80;;;;;;;3.85;73.12;101343.16;110653;1262;22139;-80
2023/05/09 01:37:29;;;;;;;27.00;8.40;;;;;;;3.84;73.23;101341.67;110585;1273;22978;-80
2023/05/09 01:40:06;;;;;;;21.70;6.60;;;;;;;3.84;73.36;101340.17;110625;1266;22379;-80
2023/05/09 01:42:41;;;;;;;19.10;5.80;;;;;;;3.82;73.47;101337.98;110610;1266;22876;-80
2023/05/09 01:45:15;;;;;;;21.00;5.40;;;;;;;3.80;73.51;101338.48;110647;1266;22900;-80
2023/05/09 01:47:48;;;;;;;20.00;5.30;;;;;;;3.80;73.60;101337.77;110718;1270;22161;-81
2023/05/09 01:50:21;;;;;;;16.50;5.30;;;;;;;3.77;73.71;101338.34;110753;1262;22176;-80
2023/05/09 01:52:56;;;;;;;17.10;5.40;;;;;;;3.74;73.71;101336.95;110444;1273;24126;-80
2023/05/09 01:55:29;;;;;;;17.90;5.50;;;;;;;3.72;73.80;101338.93;110626;1273;22142;-80
2023/05/09 01:58:01;;;;;;;17.30;5.20;;;;;;;3.68;73.90;101333.59;110684;1266;22188;-80
2023/05/09 02:00:34;;;;;;;19.80;6.40;;;;;;;3.65;73.94;101335.33;109730;1273;22550;-79
2023/05/09 02:03:05;;;;;;;20.70;6.80;;;;;;;3.61;73.99;101335.06;108538;1273;22569;-79
2023/05/09 02:05:36;;;;;;;17.80;5.60;;;;;;;3.58;73.99;101334.22;108067;1269;22544;-79
2023/05/09 02:08:08;;;;;;;24.90;7.50;;;;;;;3.54;74.14;101330.46;107935;1270;22535;-79
2023/05/09 02:10:39;;;;;;;15.90;4.40;;;;;;;3.51;74.33;101333.48;108103;1272;25949;-79
2023/05/09 02:13:10;;;;;;;17.60;5.50;;;;;;;3.47;74.31;101334.54;108074;1257;22536;-79
2023/05/09 02:15:42;;;;;;;19.40;6.10;;;;;;;3.43;74.42;101334.32;108186;1266;24268;-79
2023/05/09 02:18:13;;;;;;;18.00;5.50;;;;;;;3.40;74.50;101333.16;110615;1273;22169;-79
2023/05/09 02:20:44;;;;;;;16.30;4.90;;;;;;;3.35;74.55;101329.09;110592;1262;22125;-79
2023/05/09 02:23:15;;;;;;;20.30;6.30;;;;;;;3.30;74.61;101330.21;110626;1266;22308;-79
2023/05/09 02:25:48;;;;;;;18.10;5.30;;;;;;;3.27;74.64;101336.07;109198;1271;22519;-80
2023/05/09 02:28:21;;;;;;;19.70;5.30;;;;;;;3.23;74.76;101332.78;108525;1270;22784;-79
2023/05/09 02:30:53;;;;;;;18.80;5.90;;;;;;;3.21;74.83;101333.50;108547;1273;22559;-79
2023/05/09 02:33:25;;;;;;;17.20;4.70;;;;;;;3.17;74.79;101332.58;108516;1273;22545;-80
2023/05/09 02:35:57;;;;;;;20.40;5.20;;;;;;;3.14;74.86;101329.13;107994;1266;25414;-80
2023/05/09 02:38:27;;;;;;;17.90;5.30;;;;;;;3.09;74.88;101325.05;108070;1272;25240;-80
2023/05/09 02:40:58;;;;;;;18.90;5.70;;;;;;;3.06;74.87;101326.80;108037;1266;22512;-80
2023/05/09 02:43:29;;;;;;;18.40;5.60;;;;;;;3.01;75.03;101328.16;107989;1273;22514;-79
2023/05/09 02:46:00;;;;;;;21.00;6.80;;;;;;;2.96;75.06;101325.44;108584;1273;22489;-80
2023/05/09 02:48:30;;;;;;;19.10;5.80;;;;;;;2.94;75.19;101326.14;108042;1273;22620;-79
2023/05/09 02:51:01;;;;;;;23.30;6.50;;;;;;;2.91;75.20;101324.73;108028;1273;22555;-79
2023/05/09 02:53:32;;;;;;;20.10;5.60;;;;;;;2.87;75.24;101320.12;108040;1266;25421;-79
2023/05/09 02:56:02;;;;;;;20.80;6.10;;;;;;;2.84;75.29;101319.73;109081;1253;22528;-87
2023/05/09 02:58:34;;;;;;;19.40;6.50;;;;;;;2.81;75.37;101319.19;109547;1273;22650;-87
2023/05/09 03:01:05;;;;;;;20.20;7.20;;;;;;;2.78;75.52;101316.54;109554;1272;22537;-88
2023/05/09 03:03:38;;;;;;;18.80;6.40;;;;;;;2.76;75.62;101312.75;109529;1266;22586;-88
2023/05/09 03:06:10;;;;;;;22.60;7.00;;;;;;;2.74;75.62;101308.59;109533;1262;22620;-88
2023/05/09 03:08:41;;;;;;;20.60;6.50;;;;;;;2.76;75.72;101306.60;109502;1273;22615;-88
2023/05/09 03:11:12;;;;;;;20.10;6.40;;;;;;;2.77;75.77;101303.63;109639;1266;22930;-88
2023/05/09 03:13:43;;;;;;;20.50;5.60;;;;;;;2.77;75.89;101308.82;109555;1266;22747;-88
2023/05/09 03:16:17;;;;;;;22.70;6.60;;;;;;;2.75;75.93;101307.16;109660;1273;22487;-88
2023/05/09 03:18:48;;;;;;;18.70;6.10;;;;;;;2.73;76.17;101310.63;109608;1266;24238;-88
2023/05/09 03:21:20;;;;;;;17.90;5.40;;;;;;;2.71;76.24;101307.48;109589;1273;22569;-87
2023/05/09 03:23:51;;;;;;;18.60;5.50;;;;;;;2.69;76.31;101301.44;109513;1272;22614;-88
2023/05/09 03:26:22;;;;;;;18.60;5.50;;;;;;;2.67;76.34;101296.25;109633;1266;22521;-88
2023/05/09 03:28:52;;;;;;;16.70;5.00;;;;;;;2.68;76.49;101300.58;109626;1273;22736;-89
2023/05/09 03:31:23;;;;;;;23.60;6.80;;;;;;;2.67;76.63;101300.80;109520;1273;23256;-88
2023/05/09 03:33:55;;;;;;;21.90;6.00;;;;;;;2.68;76.78;101303.10;109650;1266;22534;-88
2023/05/09 03:36:26;;;;;;;18.60;5.20;;;;;;;2.70;76.91;101301.11;109687;1267;22529;-88
2023/05/09 03:38:57;;;;;;;18.70;5.50;;;;;;;2.70;77.00;101296.16;109646;1266;24305;-89
2023/05/09 03:41:28;;;;;;;20.60;5.90;;;;;;;2.69;77.12;101301.59;109570;1266;23050;-87
2023/05/09 03:43:59;;;;;;;17.40;6.90;;;;;;;2.70;77.25;101301.11;109615;1273;22550;-88
2023/05/09 03:46:30;;;;;;;17.60;5.40;;;;;;;2.71;77.44;101300.48;109620;1272;22557;-87
2023/05/09 03:49:00;;;;;;;16.80;5.80;;;;;;;2.72;77.50;101298.98;109491;1266;22531;-88
2023/05/09 03:51:32;;;;;;;19.30;5.60;;;;;;;2.75;77.62;101300.86;109635;1270;22649;-88
2023/05/09 03:54:03;;;;;;;20.80;5.70;;;;;;;2.77;77.92;101298.96;109628;1272;22533;-88
2023/05/09 03:56:33;;;;;;;21.20;6.40;;;;;;;2.81;78.08;101297.30;109756;1273;23294;-88
2023/05/09 03:59:05;;;;;;;21.80;6.50;;;;;;;2.87;78.20;101300.25;109566;1270;22547;-88
2023/05/09 04:01:36;;;;;;;18.40;6.00;;;;;;;2.92;78.33;101301.26;109528;1266;22558;-88
2023/05/09 04:04:07;;;;;;;21.20;6.80;;;;;;;2.99;78.53;101299.56;109505;1270;22620;-88
2023/05/09 04:06:38;;;;;;;24.60;6.90;;;;;;;3.07;78.82;101300.23;109687;1266;22384;-88
2023/05/09 04:09:10;;;;;;;24.10;7.00;;;;;;;3.14;78.74;101301.61;109578;1273;23220;-88
2023/05/09 04:11:54;;;;;;;20.60;6.90;;;;;;;3.22;78.97;101303.93;109754;1268;22598;-90
2023/05/09 04:14:25;;;;;;;27.60;8.30;;;;;;;3.31;79.22;101303.09;109622;1260;22583;-89
2023/05/09 04:16:56;;;;;;;21.00;7.10;;;;;;;3.39;79.13;101303.20;109734;1266;22606;-89
2023/05/09 04:19:27;;;;;;;18.70;5.80;;;;;;;3.49;79.23;101306.20;109710;1267;25223;-89
2023/05/09 04:21:58;;;;;;;18.50;6.80;;;;;;;3.59;79.40;101305.27;109694;1266;22600;-89
2023/05/09 04:24:30;;;;;;;21.20;6.90;;;;;;;3.69;79.29;101303.84;109164;1269;22540;-87
2023/05/09 04:27:02;;;;;;;17.00;5.60;;;;;;;3.79;79.31;101302.26;108752;1273;22538;-86
2023/05/09 04:29:33;;;;;;;19.70;6.50;;;;;;;3.89;79.29;101300.60;109109;1266;22518;-84
2023/05/09 04:32:07;;;;;;;16.90;5.40;;;;;;;4.00;79.32;101303.89;108986;1265;22662;-85
2023/05/09 04:34:38;;;;;;;20.90;6.90;;;;;;;4.14;79.38;101302.27;108655;1266;22804;-85
2023/05/09 04:37:09;;;;;;;22.10;6.80;;;;;;;4.27;79.37;101304.02;108677;1272;23292;-85
2023/05/09 04:39:41;;;;;;;21.20;5.80;;;;;;;4.39;79.33;101302.08;108702;1269;22528;-85
2023/05/09 04:42:11;;;;;;;16.60;5.60;;;;;;;4.48;79.36;101305.62;108951;1266;22565;-87
2023/05/09 04:44:42;;;;;;;18.20;5.50;;;;;;;4.57;79.40;101302.04;109560;1266;22558;-87
2023/05/09 04:47:13;;;;;;;19.40;5.70;;;;;;;4.70;79.35;101306.63;109835;1262;22623;-90
2023/05/09 04:49:44;;;;;;;17.20;4.70;;;;;;;4.82;79.32;101303.15;109580;1260;22551;-89
2023/05/09 04:52:24;;;;;;;18.30;5.40;;;;;;;4.96;79.18;101302.59;109568;1273;26396;-89
2023/05/09 04:54:56;;;;;;;17.50;5.40;;;;;;;5.09;79.09;101305.42;109380;1270;22979;-88
2023/05/09 04:57:26;;;;;;;16.50;5.20;;;;;;;5.21;79.14;101301.23;108959;1266;22937;-82
2023/05/09 04:59:58;;;;;;;16.80;4.40;;;;;;;5.34;79.03;101306.02;108724;1266;22558;-84
2023/05/09 05:02:29;;;;;;;17.90;5.00;;;;;;;5.48;79.01;101306.28;108808;1269;22640;-82
2023/05/09 05:05:02;;;;;;;14.80;4.10;;;;;;;5.61;78.98;101303.55;109473;1266;22512;-87
2023/05/09 05:07:38;;;;;;;13.80;4.50;;;;;;;5.78;79.06;101295.91;109384;1269;23410;-87
2023/05/09 05:10:12;;;;;;;16.90;4.80;;;;;;;5.97;78.95;101293.96;109495;1266;22577;-88
2023/05/09 05:12:44;;;;;;;13.50;4.00;;;;;;;6.13;78.83;101296.38;109505;1266;22545;-87
2023/05/09 05:15:18;;;;;;;15.40;5.20;;;;;;;6.30;78.71;101296.30;109461;1273;22553;-87
2023/05/09 05:17:51;;;;;;;16.40;4.70;;;;;;;6.45;78.38;101293.55;109593;1260;22541;-87
2023/05/09 05:20:22;;;;;;;14.90;4.50;;;;;;;6.60;78.28;101292.15;109517;1270;22568;-83
2023/05/09 05:22:54;;;;;;;15.70;4.80;;;;;;;6.74;78.23;101294.02;109696;1269;22523;-88
2023/05/09 05:25:24;;;;;;;14.10;4.10;;;;;;;6.89;78.17;101292.11;109333;1270;23264;-87
2023/05/09 05:27:56;;;;;;;16.50;4.90;;;;;;;7.02;78.00;101288.11;109262;1266;24372;-87
2023/05/09 05:30:27;;;;;;;17.50;5.70;;;;;;;7.14;78.00;101288.94;109167;1269;23843;-87
2023/05/09 05:33:00;;;;;;;15.80;5.10;;;;;;;7.31;77.64;101290.45;109211;1272;23351;-88
2023/05/09 05:35:31;;;;;;;17.50;6.00;;;;;;;7.49;77.37;101291.73;109080;1266;24598;-86
2023/05/09 05:38:02;;;;;;;20.50;5.70;;;;;;;7.64;76.94;101296.04;109033;1266;22950;-86
2023/05/09 05:40:33;;;;;;;18.00;5.70;;;;;;;7.77;76.92;101294.85;109195;1273;22564;-86
2023/05/09 05:43:04;;;;;;;16.20;4.60;;;;;;;7.89;76.46;101295.35;108987;1273;22491;-86
2023/05/09 05:45:36;;;;;;;16.30;4.80;;;;;;;8.02;76.28;101285.46;108968;1266;22477;-86
2023/05/09 05:48:07;;;;;;;16.00;5.10;;;;;;;8.16;76.24;101286.85;109079;1273;22604;-86
2023/05/09 05:50:39;;;;;;;16.20;5.20;;;;;;;8.30;75.98;101285.71;109028;1255;24192;-87
2023/05/09 05:53:09;;;;;;;16.90;5.00;;;;;;;8.42;75.35;101284.06;109426;1272;22555;-87
2023/05/09 05:55:40;;;;;;;17.70;5.40;;;;;;;8.53;75.33;101280.58;109862;1259;22463;-88
2023/05/09 05:58:12;;;;;;;13.00;4.50;;;;;;;8.65;75.07;101281.41;109842;1267;22516;-88
2023/05/09 06:00:43;;;;;;;14.30;4.40;;;;;;;8.77;74.45;101278.73;109213;1263;22534;-87
2023/05/09 06:03:14;;;;;;;14.20;3.60;;;;;;;8.86;74.11;101275.86;109010;1270;22546;-88
2023/05/09 06:05:49;;;;;;;13.20;3.80;;;;;;;8.98;73.90;101272.52;109128;1266;23234;-87
2023/05/09 06:08:19;;;;;;;17.40;4.80;;;;;;;9.10;73.56;101271.50;108939;1269;22467;-86
2023/05/09 06:10:50;;;;;;;16.40;4.40;;;;;;;9.20;73.32;101272.86;109057;1252;24209;-85
2023/05/09 06:13:21;;;;;;;13.70;4.00;;;;;;;9.28;72.79;101267.27;109158;1273;22514;-85
2023/05/09 06:15:56;;;;;;;15.60;4.50;;;;;;;9.34;72.58;101267.23;109121;1266;22981;-85
2023/05/09 06:18:30;;;;;;;14.00;4.00;;;;;;;9.41;72.92;101264.77;109239;1273;22508;-85
2023/05/09 06:21:01;;;;;;;13.60;3.90;;;;;;;9.53;72.69;101263.70;109283;1273;23954;-86
2023/05/09 06:23:36;;;;;;;14.40;4.70;;;;;;;9.64;72.59;101259.67;109062;1266;23241;-85
2023/05/09 06:26:07;;;;;;;11.00;3.30;;;;;;;9.74;72.22;101256.71;109070;1266;22665;-85
2023/05/09 06:28:47;;;;;;;10.80;3.30;;;;;;;9.86;71.48;101256.80;109121;1266;23798;-85
2023/05/09 06:31:19;;;;;;;14.60;4.00;;;;;;;9.93;71.20;101253.82;109035;1268;22525;-85
2023/05/09 06:33:50;;;;;;;13.50;3.50;;;;;;;10.00;70.85;101252.88;109170;1271;22578;-85
2023/05/09 06:36:20;;;;;;;13.30;3.00;;;;;;;10.07;70.53;101253.02;109074;1274;24318;-85
2023/05/09 06:38:52;;;;;;;12.40;2.80;;;;;;;10.15;70.34;101254.30;105130;1273;5412371;-85
2023/05/09 06:41:23;;;;;;;10.50;2.00;;;;;;;10.23;69.71;101254.03;109187;1271;22553;-85
2023/05/09 06:43:53;;;;;;;10.00;3.00;;;;;;;10.29;69.14;101251.71;109143;1267;22527;-85
2023/05/09 06:46:25;;;;;;;12.10;3.10;;;;;;;10.35;69.35;101248.89;109152;1270;24372;-85
2023/05/09 06:49:17;;;;;;;9.00;3.20;;;;;;;10.43;69.16;101244.61;109262;1267;22514;-85
2023/05/09 06:52:07;;;;;;;9.10;2.70;;;;;;;10.51;68.77;101242.00;109113;1266;25465;-86
2023/05/09 06:54:38;;;;;;;10.80;2.90;;;;;;;10.58;68.24;101234.23;109056;1266;23102;-86
2023/05/09 06:57:09;;;;;;;9.40;2.50;;;;;;;10.64;67.96;101233.36;109153;1273;22462;-86
2023/05/09 06:59:41;;;;;;;10.80;2.80;;;;;;;10.71;68.22;101232.89;109202;1263;25258;-85
2023/05/09 07:02:12;;;;;;;10.70;2.70;;;;;;;10.78;67.62;101228.92;109241;1269;22627;-85
2023/05/09 07:04:44;;;;;;;12.10;2.40;;;;;;;10.86;66.92;101227.91;109222;1267;23350;-86
2023/05/09 07:07:31;;;;;;;;;;;;;;;;;;;;;
2023/05/09 07:10:20;;;;;;;7.80;2.40;;;;;;;10.98;66.20;101220.16;109797;1272;22452;-88
2023/05/09 07:12:54;;;;;;;8.10;2.30;;;;;;;11.05;66.31;101217.27;109394;1273;22553;-88
2023/05/09 07:15:27;;;;;;;7.10;2.20;;;;;;;11.15;66.11;101218.95;109609;1269;22526;-87
2023/05/09 07:18:20;;;;;;;8.10;2.40;;;;;;;11.23;65.65;101226.69;109470;1273;22576;-87
2023/05/09 07:20:51;;;;;;;7.00;2.00;;;;;;;11.31;65.43;101224.86;109521;1272;22553;-87
2023/05/09 07:23:21;;;;;;;7.80;1.70;;;;;;;11.38;64.75;101225.90;109601;1270;22570;-88
2023/05/09 07:25:58;;;;;;;10.70;2.30;;;;;;;11.46;64.69;101224.42;109531;1270;24240;-87
2023/05/09 07:28:30;;;;;;;8.00;1.60;;;;;;;11.52;64.17;101225.58;109616;1270;22544;-87
2023/05/09 07:31:01;;;;;;;9.80;2.50;;;;;;;11.58;64.06;101225.25;109602;1270;22463;-87
2023/05/09 07:33:32;;;;;;;8.30;1.90;;;;;;;11.68;63.81;101218.71;109603;1273;22773;-87
2023/05/09 07:36:03;;;;;;;9.10;1.90;;;;;;;11.78;63.18;101209.91;109628;1273;22549;-87
2023/05/09 07:38:38;;;;;;;8.30;2.20;;;;;;;11.82;62.92;101209.20;109691;1270;22551;-87
2023/05/09 07:41:09;;;;;;;10.30;2.50;;;;;;;11.85;62.50;101202.19;109576;1269;23927;-89
2023/05/09 07:43:39;;;;;;;10.80;3.10;;;;;;;11.90;62.40;101193.79;109669;1272;23255;-88
2023/05/09 07:46:11;;;;;;;13.30;2.90;;;;;;;12.00;62.46;101186.95;109751;1270;22552;-88
2023/05/09 07:48:42;;;;;;;14.80;2.60;;;;;;;12.09;61.93;101182.34;109685;1273;22541;-87
2023/05/09 07:51:14;;;;;;;10.80;2.50;;;;;;;12.11;61.54;101176.45;109743;1273;25294;-87
2023/05/09 07:53:45;;;;;;;10.10;2.80;;;;;;;12.18;61.49;101169.23;109575;1263;22582;-88
2023/05/09 07:56:17;;;;;;;11.20;2.20;;;;;;;12.24;61.29;101165.98;109602;1269;24257;-87
2023/05/09 07:58:48;;;;;;;13.20;2.50;;;;;;;12.34;61.37;101164.91;109665;1273;22470;-90
2023/05/09 08:01:19;;;;;;;10.30;2.60;;;;;;;12.44;60.66;101162.49;109537;1273;22942;-87
2023/05/09 08:03:50;;;;;;;13.40;3.10;;;;;;;12.50;60.57;101155.58;109652;1268;22535;-88
2023/05/09 08:06:22;;;;;;;10.30;2.80;;;;;;;12.60;60.67;101160.77;109698;1273;22473;-89
2023/05/09 08:08:53;;;;;;;8.80;2.00;;;;;;;12.66;59.50;101152.70;109557;1271;22591;-87
2023/05/09 08:11:24;;;;;;;8.50;2.00;;;;;;;12.68;59.17;101143.91;109671;1273;22539;-87
2023/05/09 08:13:55;;;;;;;8.80;1.80;;;;;;;12.76;59.20;101149.74;109707;1267;22647;-87
2023/05/09 08:16:26;;;;;;;11.60;1.80;;;;;;;12.85;58.83;101154.35;109646;1267;22574;-89
2023/05/09 08:18:58;;;;;;;12.60;2.00;;;;;;;12.89;58.42;101154.77;109556;1273;22538;-86
2023/05/09 08:21:52;;;;;;;16.20;1.80;;;;;;;12.97;58.11;101152.72;109779;1273;22494;-86
2023/05/09 08:24:22;;;;;;;10.50;1.90;;;;;;;13.07;57.29;101148.38;109721;1273;22685;-88
2023/05/09 08:26:54;;;;;;;9.60;2.10;;;;;;;13.08;56.99;101150.45;109561;1270;25743;-87
2023/05/09 08:29:25;;;;;;;7.40;2.10;;;;;;;13.08;56.83;101145.49;109603;1273;22485;-87
2023/05/09 08:31:57;;;;;;;6.10;1.50;;;;;;;13.12;57.19;101149.52;109698;1272;25907;-87
2023/05/09 08:34:30;;;;;;;11.00;2.00;;;;;;;13.20;56.88;101143.38;109599;1273;23919;-90
2023/05/09 08:37:01;;;;;;;7.20;1.60;;;;;;;13.27;56.56;101140.63;109559;1270;23674;-87
2023/05/09 08:39:33;;;;;;;8.10;1.90;;;;;;;13.33;56.31;101135.92;109652;1263;23111;-89
2023/05/09 08:42:05;;;;;;;5.20;1.40;;;;;;;13.38;55.63;101129.46;109601;1263;24238;-87
2023/05/09 08:44:36;;;;;;;6.90;1.50;;;;;;;13.43;55.31;101122.08;109625;1270;22493;-88
2023/05/09 08:47:08;;;;;;;10.00;1.60;;;;;;;13.48;54.92;101117.45;109636;1270;22540;-88
2023/05/09 08:49:40;;;;;;;7.00;1.40;;;;;;;13.48;54.73;101113.56;109643;1266;22775;-87
2023/05/09 08:52:11;;;;;;;8.20;1.50;;;;;;;13.52;54.37;101110.68;109615;1272;22595;-88
2023/05/09 08:54:45;;;;;;;5.40;1.40;;;;;;;13.54;54.16;101109.81;109576;1271;22584;-87
2023/05/09 08:57:16;;;;;;;8.10;1.30;;;;;;;13.59;54.12;101105.02;109715;1251;22549;-87
2023/05/09 08:59:49;;;;;;;8.30;1.80;;;;;;;13.62;53.66;101101.06;109671;1267;22532;-87
2023/05/09 09:02:20;;;;;;;6.50;1.60;;;;;;;13.65;53.51;101098.91;109634;1263;22567;-87
2023/05/09 09:04:51;;;;;;;6.20;1.30;;;;;;;13.71;53.76;101102.15;109665;1270;25491;-87
2023/05/09 09:07:23;;;;;;;10.40;1.60;;;;;;;13.83;53.65;101092.38;109620;1267;23846;-87
2023/05/09 09:09:56;;;;;;;6.40;1.70;;;;;;;13.92;53.15;101090.55;109641;1265;22512;-87
2023/05/09 09:12:27;;;;;;;8.00;2.00;;;;;;;13.98;53.27;101090.61;109674;1273;22561;-89
2023/05/09 09:15:05;;;;;;;5.90;1.50;;;;;;;14.07;53.51;101091.80;109517;1270;22532;-87
2023/05/09 09:17:41;;;;;;;7.20;1.70;;;;;;;14.14;52.57;101089.68;109785;1272;22346;-87
2023/05/09 09:20:16;;;;;;;5.60;1.30;;;;;;;14.19;52.59;101088.42;109789;1269;22457;-89
2023/05/09 09:22:51;;;;;;;4.90;1.40;;;;;;;14.24;52.37;101084.20;109807;1270;22885;-88
2023/05/09 09:25:23;;;;;;;6.10;1.20;;;;;;;14.28;51.46;101080.86;109747;1273;25421;-90
2023/05/09 09:27:54;;;;;;;8.20;1.30;;;;;;;14.29;51.50;101079.00;109763;1266;23790;-89
2023/05/09 09:30:26;;;;;;;7.70;1.60;;;;;;;14.32;51.34;101079.26;109674;1273;22593;-87
2023/05/09 09:32:58;;;;;;;6.50;1.30;;;;;;;14.38;51.16;101073.70;109716;1273;22723;-87
2023/05/09 09:35:29;;;;;;;10.40;1.80;;;;;;;14.43;51.23;101066.89;109650;1266;22605;-87
2023/05/09 09:38:01;;;;;;;7.20;1.40;;;;;;;14.50;51.56;101064.52;109658;1270;22557;-87
2023/05/09 09:40:36;;;;;;;8.40;1.70;;;;;;;14.58;50.92;101061.96;109736;1273;22904;-87
2023/05/09 09:43:10;;;;;;;8.20;2.10;;;;;;;14.63;51.04;101065.13;109752;1269;23893;-88
2023/05/09 09:45:43;;;;;;;8.00;1.50;;;;;;;14.73;51.28;101063.94;109685;1267;22675;-90
2023/05/09 09:48:14;;;;;;;5.50;1.50;;;;;;;14.84;51.29;101062.52;109715;1273;22816;-89
2023/05/09 09:50:49;;;;;;;9.40;1.60;;;;;;;14.96;50.97;101057.39;109790;1267;22503;-88
2023/05/09 09:53:24;;;;;;;5.30;1.40;;;;;;;15.05;50.47;101058.48;109757;1267;25722;-88
2023/05/09 09:55:56;;;;;;;8.80;1.80;;;;;;;15.08;50.28;101052.49;109883;1273;22514;-90
2023/05/09 09:58:28;;;;;;;6.90;1.30;;;;;;;15.13;50.24;101055.79;110366;1267;22615;-89
2023/05/09 10:01:09;;;;;;;5.80;1.20;;;;;;;15.15;49.47;101046.19;110257;1273;22558;-87
2023/05/09 10:03:45;;;;;;;5.50;1.20;;;;;;;15.07;49.05;101041.38;109650;1267;22544;-89
2023/05/09 10:06:18;;;;;;;9.00;1.10;;;;;;;15.05;48.66;101036.75;109631;1257;22453;-86
2023/05/09 10:08:49;;;;;;;6.50;1.30;;;;;;;15.08;49.27;101037.45;109540;1267;22536;-89
2023/05/09 10:11:21;;;;;;;4.90;1.20;;;;;;;15.11;48.66;101034.23;109806;1267;22594;-87
2023/05/09 10:13:52;;;;;;;11.90;1.70;;;;;;;15.11;48.41;101029.88;109609;1270;22492;-88
2023/05/09 10:16:41;;;;;;;7.00;1.30;;;;;;;15.12;48.53;101030.77;109815;1273;22547;-89
2023/05/09 10:19:16;;;;;;;6.10;1.40;;;;;;;15.13;48.03;101025.41;109855;1266;23426;-87
2023/05/09 10:21:52;;;;;;;7.20;1.60;;;;;;;15.16;48.42;101021.09;109746;1267;22666;-88
2023/05/09 10:24:35;;;;;;;5.60;1.90;;;;;;;15.19;48.12;101015.36;109757;1257;23785;-90
2023/05/09 10:27:11;;;;;;;5.30;1.40;;;;;;;15.24;48.30;101014.09;109753;1269;26022;-86
2023/05/09 10:29:49;;;;;;;9.20;1.30;;;;;;;15.33;48.31;101015.88;109609;1266;22465;-87
2023/05/09 10:32:28;;;;;;;8.90;1.70;;;;;;;15.38;48.51;101017.12;109729;1267;22497;-86
2023/05/09 10:35:05;;;;;;;8.20;1.40;;;;;;;15.53;48.48;101010.30;109592;1263;24172;-87
2023/05/09 10:37:37;;;;;;;5.70;1.50;;;;;;;15.67;48.59;101012.77;109746;1270;23164;-87
2023/05/09 10:40:14;;;;;;;4.40;1.20;;;;;;;15.77;48.14;101012.15;109742;1267;22549;-87
2023/05/09 10:42:45;;;;;;;7.40;1.20;;;;;;;15.86;47.71;101001.04;109701;1263;22474;-88
2023/05/09 10:45:17;;;;;;;11.50;1.60;;;;;;;15.92;47.35;101002.48;109684;1270;23907;-87
2023/05/09 10:47:52;;;;;;;6.00;1.40;;;;;;;15.93;46.92;100998.96;109713;1267;22618;-88
2023/05/09 10:50:24;;;;;;;6.30;1.30;;;;;;;15.92;47.22;100990.13;109613;1270;22542;-88
2023/05/09 10:53:15;;;;;;;7.40;1.30;;;;;;;15.95;46.92;100989.45;109620;1273;22554;-87
2023/05/09 10:55:57;;;;;;;7.20;1.20;;;;;;;15.97;47.18;100978.25;109734;1273;22584;-87
2023/05/09 10:58:32;;;;;;;6.50;1.30;;;;;;;16.05;47.07;100969.92;109762;1269;22556;-87
2023/05/09 11:01:08;;;;;;;5.80;1.10;;;;;;;16.12;47.12;100971.16;109782;1266;22640;-90
2023/05/09 11:03:58;;;;;;;7.00;1.20;;;;;;;16.20;46.66;100970.87;109869;1264;22527;-87
2023/05/09 11:06:53;;;;;;;5.40;1.40;;;;;;;16.24;46.06;100968.95;109740;1270;25335;-87
2023/05/09 11:09:36;;;;;;;4.70;1.20;;;;;;;16.28;46.23;100962.57;109717;1251;22837;-87
2023/05/09 11:12:13;;;;;;;6.20;1.10;;;;;;;16.31;45.79;100961.61;109692;1273;22552;-87
2023/05/09 11:15:40;;;;;;;;;;;;;;;;;;;;;
2023/05/09 11:18:30;;;;;;;;;;;;;;;;;;;;;
2023/05/09 11:22:03;;;;;;;9.10;1.30;;;;;;;16.36;46.02;100948.84;109779;1266;22609;-91
2023/05/09 11:28:42;;;;;;;;;;;;;;;;;;;;;
2023/05/09 11:31:31;;;;;;;7.40;1.10;;;;;;;16.65;44.92;100939.27;109235;1275;22665;-91
2023/05/09 11:34:26;;;;;;;8.30;1.30;;;;;;;16.69;44.73;100937.08;109171;1275;23692;-91
2023/05/09 11:38:33;;;;;;;;;;;;;;;;;;;;;
2023/05/09 11:49:06;;;;;;;;;;;;;;;;;;;;;
2023/05/09 11:52:33;;;;;;;6.80;1.10;;;;;;;16.67;43.89;100894.06;108414;1291;22929;-90
2023/05/09 11:55:54;;;;;;;6.60;1.10;;;;;;;16.75;44.01;100887.64;108703;1283;22837;-91
2023/05/09 12:00:01;;;;;;;;;;;;;;;;;;;;;
2023/05/09 12:06:32;;;;;;;4.80;1.20;;;;;;;16.95;43.10;100867.98;107798;1300;22676;-92
2023/05/09 12:15:35;;;;;;;6.20;1.00;;;;;;;17.04;43.24;100852.15;106700;1260;78859;-62
2023/05/09 12:18:08;;;;;;;5.20;1.10;;;;;;;17.08;42.72;100848.52;106605;1267;22497;-59
2023/05/09 12:20:49;;;;;;;5.00;1.00;;;;;;;17.11;42.59;100846.52;108669;1262;22521;-61
2023/05/09 12:23:20;;;;;;;7.40;1.00;;;;;;;17.10;42.08;100854.69;110385;1263;22773;-63